createdAt,value
2023-04-27T00:04:25.029Z,100601.78
2023-04-27T00:09:26.755Z,100602.28
2023-04-27T00:14:28.821Z,100610.84
2023-04-27T00:19:30.496Z,100603.25
2023-04-27T00:24:31.751Z,100602.97
2023-04-27T00:29:32.959Z,100609.16
2023-04-27T00:34:34.093Z,100615.16
2023-04-27T00:39:36.114Z,100609.91
2023-04-27T00:44:39.282Z,100612.28
2023-04-27T00:49:41.202Z,100612.28
2023-04-27T00:54:42.362Z,100617.78
2023-04-27T00:59:43.523Z,100619.53
2023-04-27T01:04:45.348Z,100606.72
2023-04-27T01:09:46.656Z,100611.41
2023-04-27T01:14:47.811Z,100603.84
2023-04-27T01:19:49.869Z,100606.94
2023-04-27T01:24:51.297Z,100612.88
2023-04-27T01:29:52.489Z,100617.00
2023-04-27T01:34:53.697Z,100609.44
2023-04-27T01:39:54.865Z,100607.09
2023-04-27T01:44:56.260Z,100609.38
2023-04-27T01:49:57.426Z,100612.38
2023-04-27T01:54:58.627Z,100622.00
2023-04-27T01:59:59.888Z,100620.88
2023-04-27T02:05:01.064Z,100632.47
2023-04-27T02:10:02.338Z,100625.00
2023-04-27T02:15:03.687Z,100637.34
2023-04-27T02:20:06.981Z,100633.88
2023-04-27T02:25:08.167Z,100631.03
2023-04-27T02:30:09.327Z,100621.22
2023-04-27T02:35:11.116Z,100622.50
2023-04-27T02:40:12.628Z,100625.34
2023-04-27T02:45:13.788Z,100626.91
2023-04-27T02:50:14.962Z,100623.47
2023-04-27T02:55:16.402Z,100615.31
2023-04-27T03:00:18.918Z,100615.47
2023-04-27T03:05:20.410Z,100609.03
2023-04-27T03:10:21.693Z,100604.00
2023-04-27T03:15:23.035Z,100607.81
2023-04-27T03:20:24.244Z,100601.59
2023-04-27T03:25:25.513Z,100603.88
2023-04-27T03:30:26.740Z,100601.72
2023-04-27T03:35:27.949Z,100612.75
2023-04-27T03:40:29.121Z,100608.50
2023-04-27T03:45:30.370Z,100612.41
2023-04-27T03:50:31.573Z,100608.38
2023-04-27T03:55:32.794Z,100609.44
2023-04-27T04:00:33.956Z,100612.81
2023-04-27T04:05:35.195Z,100613.28
2023-04-27T04:10:36.391Z,100620.25
2023-04-27T04:15:37.635Z,100626.97
2023-04-27T04:20:38.864Z,100638.84
2023-04-27T04:25:40.294Z,100641.44
2023-04-27T04:30:41.441Z,100645.63
2023-04-27T04:35:42.839Z,100646.41
2023-04-27T04:40:45.888Z,100645.16
2023-04-27T04:45:47.511Z,100646.78
2023-04-27T04:50:48.899Z,100650.00
2023-04-27T04:55:50.073Z,100661.50
2023-04-27T05:00:51.482Z,100653.78
2023-04-27T05:05:52.672Z,100659.03
2023-04-27T05:10:53.927Z,100658.88
2023-04-27T05:15:55.158Z,100668.81
2023-04-27T05:20:56.434Z,100671.84
2023-04-27T05:25:57.645Z,100681.91
2023-04-27T05:30:58.905Z,100665.91
2023-04-27T05:36:00.063Z,100674.38
2023-04-27T05:41:01.256Z,100676.06
2023-04-27T05:46:02.467Z,100684.53
2023-04-27T05:51:03.653Z,100689.34
2023-04-27T05:56:06.618Z,100683.75
2023-04-27T06:01:07.756Z,100697.91
2023-04-27T06:06:08.926Z,100694.66
2023-04-27T06:11:10.360Z,100697.88
2023-04-27T06:16:11.603Z,100707.63
2023-04-27T06:21:12.852Z,100713.97
2023-04-27T06:26:14.057Z,100716.69
2023-04-27T06:31:15.366Z,100701.66
2023-04-27T06:36:16.575Z,100708.78
2023-04-27T06:41:17.969Z,100707.78
2023-04-27T06:46:19.133Z,100709.19
2023-04-27T06:51:20.338Z,100703.00
2023-04-27T06:56:22.323Z,100708.28
2023-04-27T07:01:23.548Z,100705.22
2023-04-27T07:06:25.948Z,100705.78
2023-04-27T07:11:27.091Z,100706.88
2023-04-27T07:16:28.319Z,100696.44
2023-04-27T07:21:29.489Z,100700.09
2023-04-27T07:26:31.953Z,100708.50
2023-04-27T07:31:33.307Z,100690.69
2023-04-27T07:36:34.657Z,100691.22
2023-04-27T07:41:35.885Z,100702.97
2023-04-27T07:46:38.537Z,100701.63
2023-04-27T07:51:39.719Z,100700.25
2023-04-27T07:56:40.880Z,100704.44
2023-04-27T08:01:42.105Z,100697.31
2023-04-27T08:06:43.633Z,100688.34
2023-04-27T08:11:45.530Z,100688.28
2023-04-27T08:16:46.755Z,100693.91
2023-04-27T08:21:48.001Z,100688.56
2023-04-27T08:26:49.138Z,100683.25
2023-04-27T08:31:50.771Z,100682.16
2023-04-27T08:36:52.080Z,100669.94
2023-04-27T08:41:53.335Z,100675.53
2023-04-27T08:46:54.577Z,100675.03
2023-04-27T08:51:55.987Z,100669.72
2023-04-27T08:56:57.360Z,100676.59
2023-04-27T09:01:58.569Z,100679.47
2023-04-27T09:06:59.706Z,100679.59
2023-04-27T09:12:02.622Z,100668.91
2023-04-27T09:17:03.864Z,100659.88
2023-04-27T09:22:05.349Z,100668.50
2023-04-27T09:27:06.540Z,100665.81
2023-04-27T09:32:07.776Z,100662.81
2023-04-27T09:37:09.716Z,100654.53
2023-04-27T09:42:10.968Z,100648.25
2023-04-27T09:47:12.241Z,100656.41
2023-04-27T09:52:13.455Z,100652.94
2023-04-27T09:57:15.446Z,100655.63
2023-04-27T10:07:24.508Z,100641.53
2023-04-27T10:12:25.860Z,100639.41
2023-04-27T10:17:27.230Z,100627.81
2023-04-27T10:22:28.508Z,100621.72
2023-04-27T10:27:29.673Z,100621.06
2023-04-27T10:32:30.944Z,100616.38
2023-04-27T10:37:32.142Z,100607.63
2023-04-27T10:42:33.282Z,100599.69
2023-04-27T10:47:34.530Z,100603.78
2023-04-27T10:52:35.781Z,100594.41
2023-04-27T10:57:37.171Z,100584.84
2023-04-27T11:02:38.399Z,100586.44
2023-04-27T11:07:39.651Z,100578.06
2023-04-27T11:12:41.089Z,100575.06
2023-04-27T11:17:42.391Z,100575.03
2023-04-27T11:22:43.706Z,100574.84
2023-04-27T11:27:45.666Z,100559.84
2023-04-27T11:32:46.875Z,100558.44
2023-04-27T11:37:48.294Z,100554.09
2023-04-27T11:42:49.477Z,100556.75
2023-04-27T11:47:50.790Z,100557.91
2023-04-27T11:52:52.921Z,100547.16
2023-04-27T11:57:54.077Z,100532.44
2023-04-27T12:02:55.488Z,100531.06
2023-04-27T12:07:57.142Z,100528.88
2023-04-27T12:12:58.271Z,100520.69
2023-04-27T12:17:59.525Z,100520.81
2023-04-27T12:23:00.817Z,100514.78
2023-04-27T12:28:01.952Z,100513.03
2023-04-27T12:33:09.576Z,100504.50
2023-04-27T12:38:10.906Z,100500.38
2023-04-27T12:43:12.798Z,100503.75
2023-04-27T12:48:16.918Z,100499.53
2023-04-27T12:53:18.801Z,100507.84
2023-04-27T12:58:20.077Z,100507.06
2023-04-27T13:03:21.447Z,100501.28
2023-04-27T13:08:22.754Z,100496.19
2023-04-27T13:13:23.949Z,100497.31
2023-04-27T13:18:25.105Z,100494.97
2023-04-27T13:23:29.913Z,100488.22
2023-04-27T13:28:31.123Z,100488.19
2023-04-27T13:33:32.613Z,100492.84
2023-04-27T13:38:33.816Z,100481.72
2023-04-27T13:43:35.068Z,100481.63
2023-04-27T13:48:36.294Z,100471.59
2023-04-27T13:53:37.501Z,100476.41
2023-04-27T13:58:39.001Z,100467.19
2023-04-27T14:03:42.702Z,100463.53
2023-04-27T14:08:44.799Z,100457.50
2023-04-27T14:13:46.264Z,100446.38
2023-04-27T14:18:47.397Z,100446.94
2023-04-27T14:23:48.629Z,100440.56
2023-04-27T14:28:49.822Z,100442.59
2023-04-27T14:33:50.981Z,100439.19
2023-04-27T14:38:52.116Z,100434.84
2023-04-27T14:43:53.386Z,100420.78
2023-04-27T14:48:54.558Z,100404.84
2023-04-27T14:53:55.793Z,100402.75
2023-04-27T14:58:56.926Z,100410.94
2023-04-27T15:03:58.334Z,100398.88
2023-04-27T15:08:59.702Z,100398.78
2023-04-27T15:14:00.897Z,100391.25
2023-04-27T15:19:02.149Z,100386.50
2023-04-27T15:24:03.337Z,100385.31
2023-04-27T15:29:04.510Z,100384.59
2023-04-27T15:34:05.683Z,100386.50
2023-04-27T15:39:08.813Z,100365.69
2023-04-27T15:44:11.390Z,100361.00
2023-04-27T15:49:13.035Z,100365.88
2023-04-27T15:54:14.913Z,100358.69
2023-04-27T15:59:16.383Z,100351.44
2023-04-27T16:04:17.916Z,100346.22
2023-04-27T16:09:20.056Z,100342.25
2023-04-27T16:14:21.240Z,100343.38
2023-04-27T16:19:24.713Z,100342.34
2023-04-27T16:24:25.910Z,100335.00
2023-04-27T16:29:27.074Z,100326.97
2023-04-27T16:34:28.276Z,100319.59
2023-04-27T16:39:29.453Z,100314.53
2023-04-27T16:44:31.004Z,100306.84
2023-04-27T16:49:32.272Z,100316.25
2023-04-27T16:54:33.434Z,100311.91
2023-04-27T16:59:34.642Z,100303.97
2023-04-27T17:04:39.948Z,100295.25
2023-04-27T17:09:41.390Z,100291.19
2023-04-27T17:14:42.851Z,100286.50
2023-04-27T17:19:44.135Z,100279.03
2023-04-27T17:24:45.294Z,100274.09
2023-04-27T17:29:46.445Z,100269.47
2023-04-27T17:34:47.701Z,100262.53
2023-04-27T17:39:51.556Z,100256.00
2023-04-27T17:44:52.820Z,100252.75
2023-04-27T17:49:54.027Z,100256.50
2023-04-27T17:54:55.935Z,100257.59
2023-04-27T17:59:57.110Z,100251.56
2023-04-27T18:04:58.502Z,100248.16
2023-04-27T18:10:00.021Z,100230.75
2023-04-27T18:15:04.408Z,100232.00
2023-04-27T18:20:09.848Z,100228.59
2023-04-27T18:25:13.069Z,100236.34
2023-04-27T18:30:14.248Z,100238.69
2023-04-27T18:35:15.426Z,100236.03
2023-04-27T18:40:16.662Z,100240.34
2023-04-27T18:45:17.822Z,100245.75
2023-04-27T18:50:19.261Z,100242.13
2023-04-27T18:55:20.642Z,100235.09
2023-04-27T19:00:21.839Z,100220.47
2023-04-27T19:05:23.126Z,100214.06
2023-04-27T19:10:24.345Z,100216.06
2023-04-27T19:15:25.667Z,100173.41
2023-04-27T19:20:26.864Z,100224.03
2023-04-27T19:25:28.147Z,100221.31
2023-04-27T19:30:29.362Z,100230.13
2023-04-27T19:35:30.659Z,100235.03
2023-04-27T19:40:31.942Z,100236.25
2023-04-27T19:45:33.176Z,100235.09
2023-04-27T19:50:35.778Z,100238.16
2023-04-27T19:55:37.078Z,100242.28
2023-04-27T20:00:38.321Z,100241.78
2023-04-27T20:05:39.698Z,100236.97
2023-04-27T20:10:41.888Z,100236.00
2023-04-27T20:15:43.249Z,100227.75
2023-04-27T20:20:45.155Z,100218.38
2023-04-27T20:25:46.384Z,100206.63
2023-04-27T20:30:47.628Z,100207.50
2023-04-27T20:35:48.798Z,100204.50
2023-04-27T20:40:50.436Z,100201.16
2023-04-27T20:45:51.810Z,100209.97
2023-04-27T20:50:53.154Z,100199.25
2023-04-27T20:55:54.293Z,100191.66
2023-04-27T21:00:55.582Z,100190.88
2023-04-27T21:05:56.793Z,100180.94
2023-04-27T21:10:58.069Z,100177.25
2023-04-27T21:15:59.238Z,100176.47
2023-04-27T21:21:01.483Z,100172.94
2023-04-27T21:26:02.692Z,100157.16
2023-04-27T21:31:04.080Z,100146.63
2023-04-27T21:36:05.493Z,100133.00
2023-04-27T21:41:06.727Z,100124.66
2023-04-27T21:46:07.974Z,100112.25
2023-04-27T21:51:09.190Z,100110.63
2023-04-27T21:56:10.388Z,100115.06
2023-04-27T22:01:12.583Z,100109.53
2023-04-27T22:06:14.176Z,100101.03
2023-04-27T22:11:15.392Z,100097.06
2023-04-27T22:16:16.576Z,100088.34
2023-04-27T22:21:17.848Z,100087.88
2023-04-27T22:26:19.058Z,100083.72
2023-04-27T22:31:20.402Z,100067.94
2023-04-27T22:36:21.606Z,100080.13
2023-04-27T22:41:24.174Z,100070.88
2023-04-27T22:46:25.658Z,100058.94
2023-04-27T22:51:27.534Z,100060.50
2023-04-27T22:56:28.795Z,100057.88
2023-04-27T23:01:30.142Z,100064.22
2023-04-27T23:06:31.443Z,100066.25
2023-04-27T23:11:32.685Z,100062.44
2023-04-27T23:16:35.625Z,100057.16
2023-04-27T23:21:37.021Z,100048.09
2023-04-27T23:26:38.256Z,100042.53
2023-04-27T23:31:39.502Z,100034.16
2023-04-27T23:36:41.689Z,100026.06
2023-04-27T23:41:42.924Z,100024.34
2023-04-27T23:46:44.196Z,100010.25
2023-04-27T23:51:45.653Z,100013.91
2023-04-27T23:56:47.272Z,100009.22
